createdAt,value
2018-04-09T00:01:40.501Z,99.90
2018-04-09T00:04:08.112Z,99.90
2018-04-09T00:06:36.498Z,99.90
2018-04-09T00:09:04.173Z,99.90
2018-04-09T00:11:31.755Z,99.90
2018-04-09T00:13:59.319Z,99.90
2018-04-09T00:16:26.947Z,99.90
2018-04-09T00:18:54.563Z,99.90
2018-04-09T00:21:22.177Z,99.90
2018-04-09T00:23:49.803Z,99.90
2018-04-09T00:26:18.212Z,99.90
2018-04-09T00:28:45.823Z,99.90
2018-04-09T00:31:13.408Z,99.90
2018-04-09T00:33:41.824Z,99.90
2018-04-09T00:36:09.392Z,99.90
2018-04-09T00:38:36.995Z,99.90
2018-04-09T00:41:04.638Z,99.90
2018-04-09T00:43:32.210Z,99.90
2018-04-09T00:45:59.842Z,99.90
2018-04-09T00:48:27.459Z,99.90
2018-04-09T00:50:55.802Z,99.90
2018-04-09T00:53:35.313Z,99.90
2018-04-09T00:56:02.927Z,99.90
2018-04-09T00:58:31.271Z,99.90
2018-04-09T01:00:58.885Z,99.90
2018-04-09T01:03:26.491Z,99.90
2018-04-09T01:05:54.092Z,99.90
2018-04-09T01:08:22.443Z,99.90
2018-04-09T01:10:50.066Z,99.90
2018-04-09T01:13:17.636Z,99.90
2018-04-09T01:15:45.215Z,99.80
2018-04-09T01:18:12.792Z,99.40
2018-04-09T01:20:40.412Z,98.50
2018-04-09T01:23:26.474Z,98.10
2018-04-09T01:25:54.803Z,99.50
2018-04-09T01:28:22.409Z,99.40
2018-04-09T01:30:50.020Z,99.90
2018-04-09T01:33:17.623Z,99.90
2018-04-09T01:35:46.011Z,99.90
2018-04-09T01:38:14.372Z,99.90
2018-04-09T01:40:42.784Z,99.90
2018-04-09T01:43:10.371Z,99.90
2018-04-09T01:45:37.987Z,99.90
2018-04-09T01:48:05.555Z,99.90
2018-04-09T01:50:33.194Z,99.90
2018-04-09T01:53:01.578Z,99.90
2018-04-09T01:55:29.964Z,99.90
2018-04-09T01:57:58.325Z,99.90
2018-04-09T02:00:26.668Z,99.90
2018-04-09T02:02:54.279Z,99.90
2018-04-09T02:05:22.662Z,99.90
2018-04-09T02:07:50.331Z,99.90
2018-04-09T02:10:17.901Z,99.90
2018-04-09T02:12:45.519Z,99.90
2018-04-09T02:15:13.905Z,99.90
2018-04-09T02:17:42.325Z,99.90
2018-04-09T02:20:09.921Z,99.90
2018-04-09T02:22:37.535Z,99.90
2018-04-09T02:25:05.107Z,99.90
2018-04-09T02:27:32.700Z,99.90
2018-04-09T02:30:00.306Z,99.90
2018-04-09T02:32:27.881Z,99.90
2018-04-09T02:34:55.462Z,99.90
2018-04-09T02:37:23.036Z,99.90
2018-04-09T02:39:50.668Z,99.90
2018-04-09T02:42:18.240Z,99.90
2018-04-09T02:44:45.835Z,99.90
2018-04-09T02:47:13.435Z,99.90
2018-04-09T02:49:41.008Z,99.90
2018-04-09T02:52:08.586Z,99.90
2018-04-09T02:54:36.194Z,99.90
2018-04-09T02:57:04.643Z,99.90
2018-04-09T02:59:32.311Z,99.90
2018-04-09T03:02:19.527Z,99.90
2018-04-09T03:04:47.177Z,99.90
2018-04-09T03:07:14.755Z,99.90
2018-04-09T03:09:42.335Z,99.90
2018-04-09T03:12:09.933Z,99.90
2018-04-09T03:14:37.615Z,99.90
2018-04-09T03:17:05.293Z,99.90
2018-04-09T03:19:32.896Z,99.90
2018-04-09T03:22:00.516Z,99.90
2018-04-09T03:24:28.135Z,99.90
2018-04-09T03:26:55.703Z,99.90
2018-04-09T03:29:23.285Z,99.90
2018-04-09T03:31:50.874Z,99.90
2018-04-09T03:34:19.270Z,99.90
2018-04-09T03:36:46.843Z,99.90
2018-04-09T03:39:14.478Z,99.90
2018-04-09T03:41:42.080Z,99.90
2018-04-09T03:44:09.718Z,99.90
2018-04-09T03:46:37.303Z,99.90
2018-04-09T03:49:04.902Z,99.90
2018-04-09T03:51:32.553Z,99.90
2018-04-09T03:54:00.104Z,99.90
2018-04-09T03:56:27.663Z,99.90
2018-04-09T03:58:55.295Z,99.90
2018-04-09T04:01:37.627Z,99.90
2018-04-09T04:04:07.149Z,99.90
2018-04-09T04:06:34.818Z,99.90
2018-04-09T04:09:02.454Z,99.90
2018-04-09T04:11:30.079Z,99.90
2018-04-09T04:13:57.781Z,99.90
2018-04-09T04:16:37.177Z,99.90
2018-04-09T04:19:16.463Z,99.90
2018-04-09T04:21:47.052Z,99.90
2018-04-09T04:24:17.643Z,99.90
2018-04-09T04:26:45.350Z,99.90
2018-04-09T04:29:12.989Z,99.90
2018-04-09T04:31:40.643Z,99.90
2018-04-09T04:34:08.276Z,99.90
2018-04-09T04:36:56.974Z,99.90
2018-04-09T04:39:24.597Z,99.90
2018-04-09T04:41:52.152Z,99.90
2018-04-09T04:44:20.565Z,99.90
2018-04-09T04:46:48.135Z,99.90
2018-04-09T04:49:15.721Z,99.90
2018-04-09T04:51:43.337Z,99.90
2018-04-09T04:54:10.946Z,99.90
2018-04-09T04:56:38.548Z,99.90
2018-04-09T04:59:06.897Z,99.90
2018-04-09T05:01:34.544Z,99.90
2018-04-09T05:04:02.148Z,99.90
2018-04-09T05:06:30.561Z,99.90
2018-04-09T05:08:58.171Z,99.90
2018-04-09T05:11:25.753Z,99.90
2018-04-09T05:13:53.358Z,99.90
2018-04-09T05:16:20.949Z,99.90
2018-04-09T05:18:48.581Z,99.90
2018-04-09T05:21:16.222Z,99.90
2018-04-09T05:23:43.837Z,99.90
2018-04-09T05:26:12.191Z,99.90
2018-04-09T05:28:39.775Z,99.90
2018-04-09T05:31:07.351Z,99.90
2018-04-09T05:33:35.742Z,99.90
2018-04-09T05:36:03.373Z,99.90
2018-04-09T05:38:31.755Z,99.90
2018-04-09T05:41:00.161Z,99.90
2018-04-09T05:43:28.462Z,99.90
2018-04-09T05:45:56.062Z,99.90
2018-04-09T05:48:23.694Z,99.90
2018-04-09T05:50:51.289Z,99.90
2018-04-09T05:53:18.854Z,99.90
2018-04-09T05:55:47.252Z,99.90
2018-04-09T05:58:14.844Z,99.90
2018-04-09T06:00:42.470Z,99.90
2018-04-09T06:03:10.072Z,99.90
2018-04-09T06:05:37.728Z,99.90
2018-04-09T06:08:05.336Z,99.90
2018-04-09T06:10:33.738Z,99.90
2018-04-09T06:13:01.395Z,99.90
2018-04-09T06:15:29.033Z,99.90
2018-04-09T06:17:57.397Z,99.90
2018-04-09T06:20:25.028Z,99.90
2018-04-09T06:22:52.600Z,99.90
2018-04-09T06:25:20.206Z,99.90
2018-04-09T06:27:48.565Z,99.90
2018-04-09T06:30:16.180Z,99.90
2018-04-09T06:32:43.803Z,99.90
2018-04-09T06:35:12.138Z,99.90
2018-04-09T06:37:39.760Z,99.90
2018-04-09T06:40:07.414Z,99.90
2018-04-09T06:42:35.834Z,99.90
2018-04-09T06:45:03.448Z,99.90
2018-04-09T06:47:31.872Z,99.90
2018-04-09T06:49:59.476Z,99.90
2018-04-09T06:52:27.844Z,99.90
2018-04-09T06:54:55.447Z,99.90
2018-04-09T06:57:23.097Z,99.90
2018-04-09T06:59:50.700Z,99.90
2018-04-09T07:02:18.328Z,99.90
2018-04-09T07:04:45.942Z,99.90
2018-04-09T07:07:13.551Z,99.90
2018-04-09T07:09:41.167Z,99.90
2018-04-09T07:12:08.781Z,99.90
2018-04-09T07:14:36.400Z,99.90
2018-04-09T07:17:04.021Z,99.90
2018-04-09T07:19:31.627Z,99.90
2018-04-09T07:21:59.974Z,99.90
2018-04-09T07:24:27.610Z,99.90
2018-04-09T07:26:55.278Z,99.90
2018-04-09T07:29:22.854Z,99.90
2018-04-09T07:31:50.479Z,99.90
2018-04-09T07:34:18.100Z,99.90
2018-04-09T07:36:45.732Z,99.70
2018-04-09T07:39:13.339Z,98.20
2018-04-09T07:41:41.009Z,97.30
2018-04-09T07:44:08.578Z,96.90
2018-04-09T07:46:36.919Z,96.90
2018-04-09T07:49:04.530Z,96.90
2018-04-09T07:51:32.142Z,96.00
2018-04-09T07:53:59.704Z,94.70
2018-04-09T07:56:27.291Z,94.50
2018-04-09T07:58:54.839Z,94.50
2018-04-09T08:01:22.477Z,95.70
2018-04-09T08:03:50.124Z,96.90
2018-04-09T08:06:17.769Z,97.50
2018-04-09T08:08:45.329Z,98.10
2018-04-09T08:11:12.955Z,97.30
2018-04-09T08:13:40.603Z,97.30
2018-04-09T08:16:08.180Z,97.70
2018-04-09T08:18:35.783Z,97.10
2018-04-09T08:21:03.379Z,97.10
2018-04-09T08:23:31.736Z,97.00
2018-04-09T08:25:59.349Z,97.00
2018-04-09T08:28:26.982Z,96.70
2018-04-09T08:30:55.327Z,94.10
2018-04-09T08:33:22.951Z,94.10
2018-04-09T08:35:50.528Z,92.30
2018-04-09T08:38:18.119Z,91.80
2018-04-09T08:40:45.697Z,91.70
2018-04-09T08:43:14.115Z,90.50
2018-04-09T08:45:41.723Z,90.50
2018-04-09T08:48:09.352Z,90.70
2018-04-09T08:50:36.943Z,85.20
2018-04-09T08:53:05.368Z,74.00
2018-04-09T08:55:33.302Z,73.60
2018-04-09T08:58:00.879Z,68.10
2018-04-09T09:00:28.470Z,66.90
2018-04-09T09:02:56.065Z,71.80
2018-04-09T09:05:23.672Z,76.00
2018-04-09T09:07:51.273Z,76.40
2018-04-09T09:10:18.897Z,73.00
2018-04-09T09:12:46.479Z,73.40
2018-04-09T09:15:14.119Z,73.90
2018-04-09T09:17:41.728Z,76.60
2018-04-09T09:20:09.329Z,74.70
2018-04-09T09:22:36.949Z,69.20
2018-04-09T09:25:04.591Z,73.00
2018-04-09T09:27:33.039Z,71.10
2018-04-09T09:30:00.658Z,69.20
2018-04-09T09:32:28.284Z,66.40
2018-04-09T09:34:55.917Z,68.30
2018-04-09T09:37:23.507Z,70.80
2018-04-09T09:39:51.119Z,65.40
2018-04-09T09:42:19.486Z,65.00
2018-04-09T09:44:47.856Z,65.70
2018-04-09T09:47:15.477Z,65.60
2018-04-09T09:49:43.084Z,67.10
2018-04-09T09:52:11.467Z,67.90
2018-04-09T09:54:39.795Z,68.70
2018-04-09T09:57:07.398Z,68.80
2018-04-09T09:59:35.035Z,71.10
2018-04-09T10:02:08.598Z,69.00
2018-04-09T10:04:36.270Z,70.50
2018-04-09T10:07:03.917Z,69.90
2018-04-09T10:09:31.478Z,72.10
2018-04-09T10:11:59.095Z,67.70
2018-04-09T10:14:26.702Z,67.00
2018-04-09T10:16:54.305Z,68.00
2018-04-09T10:19:21.891Z,68.40
2018-04-09T10:21:50.281Z,62.00
2018-04-09T10:24:17.876Z,62.00
2018-04-09T10:26:45.489Z,61.10
2018-04-09T10:29:13.857Z,60.50
2018-04-09T10:31:42.225Z,60.30
2018-04-09T10:34:09.840Z,60.30
2018-04-09T10:36:37.483Z,58.20
2018-04-09T10:39:05.092Z,59.50
2018-04-09T10:41:32.649Z,57.60
2018-04-09T10:44:00.263Z,58.70
2018-04-09T10:46:27.829Z,58.10
2018-04-09T10:48:55.435Z,58.00
2018-04-09T10:51:23.044Z,57.10
2018-04-09T10:53:50.637Z,55.40
2018-04-09T10:56:18.289Z,55.00
2018-04-09T10:58:45.923Z,54.90
2018-04-09T11:01:13.559Z,54.50
2018-04-09T11:03:41.887Z,54.70
2018-04-09T11:06:09.478Z,54.50
2018-04-09T11:08:37.076Z,55.00
2018-04-09T11:11:04.704Z,55.60
2018-04-09T11:13:32.305Z,56.00
2018-04-09T11:15:59.915Z,56.30
2018-04-09T11:18:27.540Z,55.20
2018-04-09T11:20:55.189Z,57.00
2018-04-09T11:23:22.820Z,56.80
2018-04-09T11:25:51.185Z,58.00
2018-04-09T11:28:18.767Z,57.50
2018-04-09T11:30:46.360Z,57.50
2018-04-09T11:33:14.002Z,56.90
2018-04-09T11:35:42.380Z,57.40
2018-04-09T11:38:09.934Z,57.40
2018-04-09T11:40:38.327Z,53.50
2018-04-09T11:43:05.945Z,53.40
2018-04-09T11:45:33.598Z,52.50
2018-04-09T11:48:01.223Z,52.60
2018-04-09T11:50:28.790Z,53.00
2018-04-09T11:52:56.390Z,52.70
2018-04-09T11:55:24.001Z,52.40
2018-04-09T12:00:19.085Z,55.00
2018-04-09T12:02:47.516Z,55.70
2018-04-09T12:05:15.178Z,55.70
2018-04-09T12:07:42.782Z,53.70
2018-04-09T12:10:11.153Z,53.80
2018-04-09T12:12:38.777Z,53.80
2018-04-09T12:15:06.342Z,54.50
2018-04-09T12:17:33.951Z,54.00
2018-04-09T12:20:02.919Z,55.00
2018-04-09T12:22:30.541Z,57.20
2018-04-09T12:24:58.154Z,54.30
2018-04-09T12:27:25.761Z,53.80
2018-04-09T12:29:53.392Z,51.40
2018-04-09T12:32:21.018Z,49.10
2018-04-09T12:34:48.679Z,49.90
2018-04-09T12:37:16.275Z,46.20
2018-04-09T12:39:43.972Z,44.90
2018-04-09T12:42:11.530Z,43.40
2018-04-09T12:44:39.206Z,41.90
2018-04-09T12:47:06.802Z,42.90
2018-04-09T12:49:34.413Z,41.20
2018-04-09T12:52:02.076Z,43.90
2018-04-09T12:54:29.665Z,44.50
2018-04-09T12:56:57.231Z,44.40
2018-04-09T12:59:24.779Z,44.60
2018-04-09T13:01:52.350Z,45.10
2018-04-09T13:04:19.901Z,46.50
2018-04-09T13:06:47.501Z,46.60
2018-04-09T13:09:15.106Z,44.50
2018-04-09T13:11:42.690Z,44.80
2018-04-09T13:14:10.317Z,44.80
2018-04-09T13:16:37.980Z,42.80
2018-04-09T13:19:05.541Z,43.10
2018-04-09T13:21:33.210Z,42.80
2018-04-09T13:24:00.766Z,42.00
2018-04-09T13:26:28.340Z,41.90
2018-04-09T13:28:55.966Z,41.70
2018-04-09T13:31:23.549Z,40.50
2018-04-09T13:33:51.213Z,41.50
2018-04-09T13:36:18.802Z,40.10
2018-04-09T13:38:47.918Z,39.20
2018-04-09T13:41:15.501Z,38.50
2018-04-09T13:43:43.545Z,37.50
2018-04-09T13:46:11.960Z,37.20
2018-04-09T13:48:39.536Z,37.20
2018-04-09T13:51:07.157Z,36.40
2018-04-09T13:53:34.794Z,36.10
2018-04-09T13:56:03.112Z,36.90
2018-04-09T13:58:31.449Z,37.50
2018-04-09T14:00:59.086Z,37.40
2018-04-09T14:03:26.690Z,38.50
2018-04-09T14:05:54.279Z,40.10
2018-04-09T14:08:22.648Z,38.70
2018-04-09T14:10:50.254Z,38.70
2018-04-09T14:13:17.883Z,37.80
2018-04-09T14:15:45.452Z,38.80
2018-04-09T14:18:13.000Z,37.90
2018-04-09T14:20:40.641Z,37.30
2018-04-09T14:23:08.209Z,38.00
2018-04-09T14:25:35.787Z,38.50
2018-04-09T14:28:03.392Z,38.40
2018-04-09T14:30:31.782Z,38.40
2018-04-09T14:32:59.391Z,38.30
2018-04-09T14:35:27.034Z,37.60
2018-04-09T14:37:54.643Z,38.50
2018-04-09T14:40:22.277Z,39.40
2018-04-09T14:42:49.897Z,39.30
2018-04-09T14:45:17.501Z,39.50
2018-04-09T14:47:45.100Z,41.40
2018-04-09T14:50:13.478Z,41.50
2018-04-09T14:52:41.827Z,40.20
2018-04-09T14:55:09.419Z,40.20
2018-04-09T14:57:37.812Z,40.00
2018-04-09T15:00:05.399Z,39.90
2018-04-09T15:02:33.773Z,39.10
2018-04-09T15:05:01.391Z,39.10
2018-04-09T15:07:29.727Z,40.50
2018-04-09T15:09:57.354Z,40.40
2018-04-09T15:12:24.954Z,39.10
2018-04-09T15:14:52.578Z,39.60
2018-04-09T15:17:20.207Z,39.60
2018-04-09T15:19:48.505Z,40.10
2018-04-09T15:31:02.980Z,41.50
2018-04-09T15:33:30.599Z,41.50
2018-04-09T15:35:58.176Z,41.70
2018-04-09T15:38:25.722Z,42.80
2018-04-09T15:40:53.300Z,41.10
2018-04-09T15:43:20.855Z,42.50
2018-04-09T15:45:48.456Z,42.30
2018-04-09T15:48:16.787Z,42.60
2018-04-09T15:50:44.340Z,42.60
2018-04-09T15:53:11.893Z,42.40
2018-04-09T15:55:40.229Z,41.80
2018-04-09T15:58:08.556Z,42.90
2018-04-09T16:00:36.451Z,42.90
2018-04-09T16:03:04.034Z,43.50
2018-04-09T16:05:43.094Z,42.40
2018-04-09T16:08:11.592Z,42.40
2018-04-09T16:10:39.222Z,43.60
2018-04-09T16:13:06.848Z,43.10
2018-04-09T16:15:34.401Z,44.20
2018-04-09T16:18:04.805Z,44.60
2018-04-09T16:20:32.382Z,44.30
2018-04-09T16:22:59.969Z,45.30
2018-04-09T16:25:28.293Z,47.90
2018-04-09T16:27:55.859Z,47.20
2018-04-09T16:30:23.420Z,46.60
2018-04-09T16:32:51.050Z,47.00
2018-04-09T16:35:19.583Z,47.20
2018-04-09T16:37:47.207Z,48.10
2018-04-09T16:40:16.907Z,48.20
2018-04-09T16:42:44.529Z,48.10
2018-04-09T16:45:12.103Z,48.60
2018-04-09T16:47:40.416Z,49.50
2018-04-09T16:50:07.989Z,50.10
2018-04-09T16:52:35.563Z,48.90
2018-04-09T16:55:03.184Z,48.80
2018-04-09T16:57:31.708Z,49.10
2018-04-09T17:00:01.185Z,49.30
2018-04-09T17:02:33.084Z,49.40
2018-04-09T17:05:00.703Z,49.50
2018-04-09T17:07:28.319Z,49.70
2018-04-09T17:09:55.929Z,50.20
2018-04-09T17:12:23.509Z,50.60
2018-04-09T17:14:51.091Z,50.80
2018-04-09T17:17:18.716Z,50.80
2018-04-09T17:19:46.340Z,51.30
2018-04-09T17:22:13.906Z,53.00
2018-04-09T17:24:41.532Z,53.50
2018-04-09T17:27:09.170Z,53.40
2018-04-09T17:29:36.773Z,53.90
2018-04-09T17:32:05.185Z,56.50
2018-04-09T17:34:33.046Z,56.50
2018-04-09T17:37:00.649Z,57.10
2018-04-09T17:39:38.129Z,57.40
2018-04-09T17:42:05.706Z,57.30
2018-04-09T17:44:33.301Z,58.20
2018-04-09T17:47:00.924Z,60.20
2018-04-09T17:49:28.643Z,59.90
2018-04-09T17:51:56.280Z,60.20
2018-04-09T17:54:28.425Z,61.40
2018-04-09T18:00:07.525Z,61.80
2018-04-09T18:02:43.455Z,61.50
2018-04-09T18:05:11.843Z,62.50
2018-04-09T18:07:49.514Z,62.40
2018-04-09T18:13:11.862Z,63.90
2018-04-09T18:15:39.500Z,65.00
2018-04-09T18:18:26.997Z,67.40
2018-04-09T18:20:54.589Z,68.60
2018-04-09T18:23:27.268Z,69.40
2018-04-09T18:25:54.895Z,71.40
2018-04-09T18:28:22.464Z,73.00
2018-04-09T18:30:50.101Z,72.10
2018-04-09T18:33:17.676Z,72.50
2018-04-09T18:35:47.314Z,70.70
2018-04-09T18:38:14.905Z,69.10
2018-04-09T18:40:44.030Z,69.40
2018-04-09T18:43:11.686Z,69.30
2018-04-09T18:45:39.394Z,69.00
2018-04-09T18:51:24.167Z,70.10
2018-04-09T18:53:51.723Z,70.40
2018-04-09T18:56:19.297Z,70.50
2018-04-09T18:58:46.850Z,71.60
2018-04-09T19:01:14.480Z,71.40
2018-04-09T19:03:42.048Z,72.10
2018-04-09T19:06:09.638Z,74.00
2018-04-09T19:08:37.287Z,74.80
2018-04-09T19:11:04.874Z,75.30
2018-04-09T19:13:32.738Z,75.30
2018-04-09T19:16:00.350Z,75.20
2018-04-09T19:18:27.959Z,75.70
2018-04-09T19:20:55.618Z,75.80
2018-04-09T19:23:23.194Z,76.30
2018-04-09T19:25:50.817Z,77.10
2018-04-09T19:28:18.468Z,77.70
2018-04-09T19:30:46.057Z,77.60
2018-04-09T19:33:13.860Z,77.10
2018-04-09T19:35:47.760Z,76.90
2018-04-09T19:38:21.704Z,77.90
2018-04-09T19:40:49.323Z,77.20
2018-04-09T19:43:16.969Z,77.30
2018-04-09T19:45:44.570Z,77.00
2018-04-09T19:48:12.148Z,78.00
2018-04-09T19:50:40.983Z,79.80
2018-04-09T19:53:08.597Z,81.10
2018-04-09T19:55:36.984Z,87.00
2018-04-09T19:58:04.603Z,87.00
2018-04-09T20:00:33.032Z,92.00
2018-04-09T20:03:00.617Z,92.00
2018-04-09T20:05:28.190Z,93.30
2018-04-09T20:07:55.803Z,94.10
2018-04-09T20:10:23.444Z,94.70
2018-04-09T20:12:51.045Z,95.30
2018-04-09T20:15:18.655Z,95.80
2018-04-09T20:17:47.041Z,96.20
2018-04-09T20:20:14.653Z,96.20
2018-04-09T20:22:42.272Z,96.50
2018-04-09T20:25:09.828Z,96.60
2018-04-09T20:27:37.487Z,96.80
2018-04-09T20:30:05.879Z,97.00
2018-04-09T20:32:33.504Z,96.90
2018-04-09T20:35:01.909Z,96.90
2018-04-09T20:37:29.559Z,96.80
2018-04-09T20:39:57.886Z,97.10
2018-04-09T20:42:25.483Z,97.00
2018-04-09T20:44:53.854Z,97.50
2018-04-09T20:47:21.442Z,97.50
2018-04-09T20:49:49.052Z,97.90
2018-04-09T20:52:16.650Z,98.10
2018-04-09T20:54:44.269Z,98.20
2018-04-09T20:57:11.912Z,98.40
2018-04-09T20:59:39.537Z,98.60
2018-04-09T21:02:07.905Z,99.10
2018-04-09T21:04:36.334Z,99.30
2018-04-09T21:07:03.914Z,99.30
2018-04-09T21:09:31.515Z,99.50
2018-04-09T21:11:59.106Z,99.70
2018-04-09T21:14:26.693Z,99.90
2018-04-09T21:16:54.253Z,99.90
2018-04-09T21:19:21.845Z,99.90
2018-04-09T21:21:50.200Z,99.90
2018-04-09T21:24:36.740Z,99.90
2018-04-09T21:27:04.288Z,99.90
2018-04-09T21:29:32.695Z,99.90
2018-04-09T21:32:00.299Z,99.90
2018-04-09T21:34:27.933Z,99.90
2018-04-09T21:36:55.532Z,99.90
2018-04-09T21:39:23.178Z,99.90
2018-04-09T21:41:50.773Z,99.90
2018-04-09T21:44:19.130Z,99.90
2018-04-09T21:46:46.725Z,99.90
2018-04-09T21:49:14.359Z,99.90
2018-04-09T21:51:42.730Z,99.90
2018-04-09T21:54:10.362Z,99.90
2018-04-09T21:56:37.975Z,99.90
2018-04-09T21:59:06.334Z,99.90
2018-04-09T22:01:34.754Z,99.90
2018-04-09T22:04:02.365Z,99.90
2018-04-09T22:06:29.947Z,99.90
2018-04-09T22:08:58.323Z,99.90
2018-04-09T22:11:26.729Z,99.90
2018-04-09T22:13:54.305Z,99.90
2018-04-09T22:16:21.902Z,99.90
2018-04-09T22:18:49.551Z,99.90
2018-04-09T22:21:17.192Z,99.90
2018-04-09T22:23:44.770Z,99.90
2018-04-09T22:26:12.386Z,99.90
2018-04-09T22:28:39.966Z,99.90
2018-04-09T22:31:07.538Z,99.90
2018-04-09T22:33:35.194Z,99.90
2018-04-09T22:36:02.810Z,99.90
2018-04-09T22:38:31.183Z,99.90
2018-04-09T22:40:59.563Z,99.90
2018-04-09T22:43:28.001Z,99.90
2018-04-09T22:45:55.661Z,99.90
2018-04-09T22:48:23.265Z,99.90
2018-04-09T22:50:50.845Z,99.90
2018-04-09T22:53:18.471Z,99.90
2018-04-09T22:55:46.830Z,99.90
2018-04-09T22:58:14.425Z,99.90
2018-04-09T23:00:42.821Z,99.90
2018-04-09T23:03:10.429Z,99.90
2018-04-09T23:05:38.062Z,99.90
2018-04-09T23:08:05.660Z,99.90
2018-04-09T23:10:33.248Z,99.90
2018-04-09T23:13:00.846Z,99.90
2018-04-09T23:15:29.337Z,99.90
2018-04-09T23:17:56.954Z,99.90
2018-04-09T23:20:24.560Z,99.90
2018-04-09T23:22:52.181Z,99.90
2018-04-09T23:25:19.801Z,99.90
2018-04-09T23:27:47.410Z,99.90
2018-04-09T23:30:15.799Z,99.90
2018-04-09T23:32:43.482Z,99.90
2018-04-09T23:35:11.078Z,99.90
2018-04-09T23:37:38.689Z,99.90
2018-04-09T23:40:08.063Z,99.90
2018-04-09T23:42:35.685Z,99.90
2018-04-09T23:45:03.285Z,99.90
2018-04-09T23:47:30.946Z,99.90
2018-04-09T23:49:58.553Z,99.90
2018-04-09T23:52:26.196Z,99.90
2018-04-09T23:54:53.808Z,99.90
2018-04-09T23:57:22.204Z,99.90
2018-04-09T23:59:49.873Z,99.90
